Time;durP1;ratioP1;P1;durP2;ratioP2;P2;SDS_P1;SDS_P2;PMS_P1;PMS_P2;Temp;Humidity;BMP_temperature;BMP_pressure;BME280_temperature;BME280_humidity;BME280_pressure;Samples;Min_cycle;Max_cycle;Signal;HPM_P1;HPM_P2
2024/02/22 00:00:22;;;;;;;12.60;8.40;;;;;;;4.08;78.77;99596.98;106757;1267;59481;-39
2024/02/22 00:02:49;;;;;;;12.00;8.90;;;;;;;4.08;78.71;99588.07;106665;1267;73054;-39
2024/02/22 00:05:17;;;;;;;12.50;9.50;;;;;;;4.09;78.67;99584.23;106745;1267;67916;-40
2024/02/22 00:07:45;;;;;;;11.20;8.90;;;;;;;4.09;78.59;99581.61;106722;1267;72670;-40
2024/02/22 00:10:13;;;;;;;11.80;8.50;;;;;;;4.02;78.65;99567.42;106729;1266;59750;-40
2024/02/22 00:12:41;;;;;;;11.50;8.40;;;;;;;4.11;78.62;99572.59;106716;1267;60047;-40
2024/02/22 00:15:12;;;;;;;12.60;9.40;;;;;;;4.15;78.55;99575.27;106713;1266;73215;-40
2024/02/22 00:17:39;;;;;;;12.40;9.20;;;;;;;4.15;78.47;99570.33;106771;1266;67628;-40
2024/02/22 00:20:07;;;;;;;15.30;9.70;;;;;;;4.11;78.39;99565.92;106733;1267;72676;-39
2024/02/22 00:22:35;;;;;;;13.40;9.50;;;;;;;4.04;78.22;99562.66;106732;1267;60842;-39
2024/02/22 00:25:04;;;;;;;13.50;8.60;;;;;;;3.99;78.24;99561.94;106729;1267;60068;-40
2024/02/22 00:27:31;;;;;;;12.00;8.50;;;;;;;3.98;78.51;99554.88;106740;1266;73088;-40
2024/02/22 00:29:59;;;;;;;14.40;9.10;;;;;;;4.03;78.47;99556.28;106783;1266;67669;-39
2024/02/22 00:32:26;;;;;;;13.40;9.10;;;;;;;4.08;78.54;99561.40;106710;1266;72709;-40
2024/02/22 00:34:54;;;;;;;12.50;9.30;;;;;;;4.10;78.62;99560.38;105966;1266;1003781;-40
2024/02/22 00:37:22;;;;;;;13.50;9.40;;;;;;;4.12;78.58;99551.56;106756;1269;59551;-40
2024/02/22 00:39:51;;;;;;;14.40;9.80;;;;;;;4.16;78.52;99558.12;106762;1267;71857;-40
2024/02/22 00:42:20;;;;;;;13.30;9.20;;;;;;;4.16;78.54;99556.89;106632;1266;66415;-39
2024/02/22 00:44:47;;;;;;;11.50;9.10;;;;;;;4.14;78.33;99554.20;106705;1266;71904;-40
2024/02/22 00:47:15;;;;;;;11.90;9.30;;;;;;;4.14;78.18;99548.14;106746;1266;59696;-40
2024/02/22 00:49:42;;;;;;;15.00;10.00;;;;;;;4.17;78.08;99544.04;106701;1270;60007;-40
2024/02/22 00:52:10;;;;;;;11.40;8.70;;;;;;;4.23;78.12;99543.90;106676;1272;73131;-39
2024/02/22 00:54:38;;;;;;;11.80;8.60;;;;;;;4.32;78.28;99542.40;106729;1269;66340;-39
2024/02/22 00:57:05;;;;;;;12.80;9.20;;;;;;;4.38;78.38;99538.97;106748;1266;71674;-40
2024/02/22 00:59:33;;;;;;;12.30;9.50;;;;;;;4.38;77.90;99535.78;106644;1266;60090;-40
2024/02/22 01:02:02;;;;;;;12.70;10.00;;;;;;;4.29;77.54;99527.52;106787;1266;59775;-39
2024/02/22 01:04:29;;;;;;;13.90;10.30;;;;;;;4.19;77.62;99528.90;106809;1266;73194;-40
2024/02/22 01:06:58;;;;;;;14.40;9.90;;;;;;;4.14;77.84;99535.70;106705;1266;67595;-39
2024/02/22 01:09:26;;;;;;;14.50;10.00;;;;;;;4.12;77.80;99531.40;107252;1257;72669;-40
2024/02/22 01:11:54;;;;;;;14.80;9.80;;;;;;;4.10;77.77;99530.08;107199;1257;59682;-39
2024/02/22 01:14:22;;;;;;;14.00;9.80;;;;;;;4.07;77.80;99524.52;107187;1260;60019;-39
2024/02/22 01:16:50;;;;;;;12.00;9.20;;;;;;;4.04;77.74;99517.47;107198;1261;73098;-40
2024/02/22 01:19:18;;;;;;;16.00;9.70;;;;;;;3.99;78.05;99521.49;107220;1259;67682;-40
2024/02/22 01:21:46;;;;;;;13.40;9.90;;;;;;;3.91;78.22;99512.27;107237;1260;72747;-39
2024/02/22 01:24:13;;;;;;;14.00;9.90;;;;;;;3.87;78.52;99512.70;107190;1263;59284;-40
2024/02/22 01:26:41;;;;;;;13.00;10.10;;;;;;;3.86;78.75;99508.88;107119;1259;59490;-40
2024/02/22 01:29:09;;;;;;;13.00;9.70;;;;;;;3.85;78.69;99502.48;107210;1259;73178;-40
2024/02/22 01:31:36;;;;;;;12.40;9.30;;;;;;;3.88;78.89;99502.30;107206;1259;66325;-39
2024/02/22 01:34:04;;;;;;;17.20;9.60;;;;;;;3.93;79.11;99494.40;107098;1259;72577;-40
2024/02/22 01:36:32;;;;;;;14.70;10.00;;;;;;;3.97;78.92;99493.59;107195;1258;59918;-40
2024/02/22 01:39:00;;;;;;;13.50;9.70;;;;;;;3.98;78.97;99491.79;107172;1260;60051;-39
2024/02/22 01:41:28;;;;;;;14.40;10.80;;;;;;;3.97;79.06;99495.97;107179;1259;71742;-39
2024/02/22 01:43:56;;;;;;;14.70;9.40;;;;;;;3.97;79.05;99491.98;107142;1258;67629;-39
2024/02/22 01:46:23;;;;;;;15.10;10.10;;;;;;;3.98;79.10;99495.48;107175;1258;72668;-39
2024/02/22 01:48:51;;;;;;;14.00;9.60;;;;;;;4.01;79.14;99489.25;107113;1260;60886;-40
2024/02/22 01:51:19;;;;;;;12.70;9.30;;;;;;;4.04;78.90;99488.88;107215;1260;60062;-40
2024/02/22 01:53:49;;;;;;;12.40;8.70;;;;;;;4.11;79.16;99489.36;107180;1259;73281;-39
2024/02/22 01:56:20;;;;;;;12.00;8.50;;;;;;;4.18;79.02;99488.30;106986;1260;68110;-40
2024/02/22 01:58:49;;;;;;;11.20;8.70;;;;;;;4.22;78.84;99484.95;107104;1259;72670;-39
2024/02/22 02:01:19;;;;;;;11.90;8.40;;;;;;;4.26;78.99;99484.14;107115;1258;59619;-40
2024/02/22 02:03:47;;;;;;;10.40;8.30;;;;;;;4.28;78.58;99476.46;107258;1260;60051;-40
2024/02/22 02:06:15;;;;;;;13.20;9.10;;;;;;;4.28;78.62;99473.50;107066;1259;73049;-39
2024/02/22 02:08:43;;;;;;;11.50;9.10;;;;;;;4.31;78.61;99467.88;107277;1259;66627;-40
2024/02/22 02:11:11;;;;;;;12.20;8.80;;;;;;;4.33;78.13;99468.52;106960;1260;72718;-40
2024/02/22 02:13:38;;;;;;;13.50;9.50;;;;;;;4.35;77.90;99464.30;107216;1257;59632;-39
2024/02/22 02:16:06;;;;;;;12.30;9.30;;;;;;;4.33;77.79;99464.01;107185;1259;60057;-40
2024/02/22 02:18:34;;;;;;;14.10;10.40;;;;;;;4.33;77.88;99462.39;107219;1260;73051;-40
2024/02/22 02:21:11;;;;;;;15.60;10.10;;;;;;;4.35;78.17;99461.39;107176;1257;67651;-39
2024/02/22 02:23:48;;;;;;;13.10;9.70;;;;;;;4.36;78.00;99458.66;107179;1257;72661;-40
2024/02/22 02:26:15;;;;;;;16.10;11.00;;;;;;;4.35;78.22;99457.10;107094;1259;60422;-40
2024/02/22 02:28:43;;;;;;;13.90;10.10;;;;;;;4.37;78.18;99454.02;107207;1259;58782;-39
2024/02/22 02:31:11;;;;;;;17.30;10.70;;;;;;;4.40;78.04;99455.48;107163;1261;73856;-39
2024/02/22 02:33:38;;;;;;;14.00;10.10;;;;;;;4.42;77.78;99456.61;107054;1259;67569;-39
2024/02/22 02:36:06;;;;;;;15.70;10.10;;;;;;;4.43;77.59;99451.05;107184;1257;72713;-39
2024/02/22 02:38:34;;;;;;;14.70;10.90;;;;;;;4.43;77.72;99448.57;107159;1259;60440;-39
2024/02/22 02:41:01;;;;;;;14.50;10.70;;;;;;;4.43;77.62;99452.44;107075;1259;60303;-39
2024/02/22 02:43:29;;;;;;;18.40;11.70;;;;;;;4.39;77.42;99449.77;107212;1257;73869;-39
2024/02/22 02:45:57;;;;;;;16.70;11.30;;;;;;;4.36;77.75;99445.40;107073;1260;67613;-39
2024/02/22 02:48:24;;;;;;;16.80;11.10;;;;;;;4.34;77.71;99442.56;107180;1257;72854;-39
2024/02/22 02:50:53;;;;;;;14.90;10.60;;;;;;;4.33;77.77;99438.67;107016;1260;60868;-39
2024/02/22 02:53:22;;;;;;;14.00;9.80;;;;;;;4.32;77.81;99438.42;107219;1259;60550;-39
2024/02/22 02:55:49;;;;;;;13.00;9.70;;;;;;;4.32;77.70;99435.64;107326;1257;73501;-39
2024/02/22 02:58:17;;;;;;;14.30;9.70;;;;;;;4.31;77.75;99438.73;107192;1257;67568;-39
2024/02/22 03:00:44;;;;;;;16.10;10.80;;;;;;;4.30;77.82;99435.40;107187;1257;71460;-39
2024/02/22 03:03:12;;;;;;;16.10;10.90;;;;;;;4.30;78.09;99434.02;107142;1257;60316;-39
2024/02/22 03:05:40;;;;;;;14.50;10.60;;;;;;;4.28;78.17;99435.71;107141;1262;60428;-39
2024/02/22 03:08:09;;;;;;;15.70;10.70;;;;;;;4.26;78.19;99436.77;107284;1256;73840;-39
2024/02/22 03:10:36;;;;;;;15.50;10.30;;;;;;;4.24;78.31;99435.69;107212;1256;67553;-39
2024/02/22 03:13:08;;;;;;;16.20;10.80;;;;;;;4.25;78.23;99437.80;107184;1257;72373;-39
2024/02/22 03:15:38;;;;;;;14.60;10.40;;;;;;;4.27;78.40;99434.09;107240;1257;60967;-39
2024/02/22 03:18:06;;;;;;;14.20;10.00;;;;;;;4.26;78.37;99434.16;107221;1257;60417;-39
2024/02/22 03:20:34;;;;;;;13.60;10.50;;;;;;;4.21;78.49;99425.52;107252;1257;73859;-39
2024/02/22 03:23:02;;;;;;;13.60;9.80;;;;;;;4.29;78.53;99433.19;107222;1257;68108;-39
2024/02/22 03:25:30;;;;;;;15.20;10.40;;;;;;;4.29;78.59;99431.61;107246;1257;72655;-39
2024/02/22 03:27:58;;;;;;;15.70;11.40;;;;;;;4.29;78.71;99431.14;107264;1257;60600;-39
2024/02/22 03:30:27;;;;;;;15.40;10.90;;;;;;;4.26;78.75;99435.93;107280;1257;60424;-39
2024/02/22 03:32:56;;;;;;;14.00;10.40;;;;;;;4.22;78.89;99433.38;107301;1257;73799;-39
2024/02/22 03:35:24;;;;;;;14.00;10.80;;;;;;;4.23;79.23;99433.40;107286;1257;67666;-39
2024/02/22 03:37:52;;;;;;;15.80;10.60;;;;;;;4.25;79.18;99434.88;107231;1257;72668;-39
2024/02/22 03:40:20;;;;;;;16.00;11.20;;;;;;;4.28;79.29;99433.19;107205;1257;61079;-39
2024/02/22 03:42:48;;;;;;;15.80;10.60;;;;;;;4.32;79.30;99433.34;107183;1257;60297;-39
2024/02/22 03:45:15;;;;;;;15.80;11.40;;;;;;;4.34;79.52;99431.23;107198;1257;74114;-39
2024/02/22 03:47:43;;;;;;;15.30;11.70;;;;;;;4.40;79.49;99437.99;107238;1257;67581;-39
2024/02/22 03:50:10;;;;;;;17.10;11.90;;;;;;;4.41;79.49;99435.89;107233;1257;71727;-39
2024/02/22 03:52:38;;;;;;;17.60;12.30;;;;;;;4.38;79.31;99433.25;107228;1257;60447;-39
2024/02/22 03:55:08;;;;;;;19.40;11.80;;;;;;;4.37;79.41;99430.34;107238;1257;59261;-39
2024/02/22 03:57:36;;;;;;;;;;;;;;;4.38;79.51;99428.64;107204;1257;73815;-39
2024/02/22 04:00:06;;;;;;;16.20;11.10;;;;;;;4.39;79.45;99428.83;107165;1257;67584;-39
2024/02/22 04:02:41;;;;;;;14.40;11.00;;;;;;;4.42;79.66;99431.91;107239;1257;72812;-39
2024/02/22 04:05:10;;;;;;;17.20;11.50;;;;;;;4.47;79.68;99428.16;107248;1257;60333;-39
2024/02/22 04:07:37;;;;;;;15.30;11.00;;;;;;;4.53;79.80;99427.13;107211;1261;59236;-39
2024/02/22 04:10:06;;;;;;;17.10;11.60;;;;;;;4.58;79.72;99423.76;107231;1257;73838;-39
2024/02/22 04:12:33;;;;;;;16.30;11.90;;;;;;;4.62;79.66;99419.34;107226;1257;66284;-39
2024/02/22 04:15:02;;;;;;;16.60;11.90;;;;;;;4.65;79.57;99423.04;107193;1257;72711;-39
2024/02/22 04:17:30;;;;;;;19.00;13.00;;;;;;;4.66;79.43;99421.56;107232;1257;60382;-39
2024/02/22 04:19:57;;;;;;;15.90;12.80;;;;;;;4.66;79.48;99419.95;107274;1257;60798;-39
2024/02/22 04:22:25;;;;;;;15.80;12.30;;;;;;;4.67;79.30;99418.00;107177;1257;73912;-39
2024/02/22 04:24:53;;;;;;;15.90;12.50;;;;;;;4.69;79.48;99418.09;107266;1257;67582;-39
2024/02/22 04:27:20;;;;;;;16.80;12.40;;;;;;;4.70;79.41;99414.00;107212;1257;72721;-39
2024/02/22 04:29:48;;;;;;;17.30;12.60;;;;;;;4.72;79.32;99415.45;107195;1257;60890;-39
2024/02/22 04:32:15;;;;;;;18.20;12.80;;;;;;;4.72;79.33;99413.09;107183;1256;60296;-39
2024/02/22 04:34:43;;;;;;;16.20;12.10;;;;;;;4.72;79.56;99411.11;107206;1262;73890;-39
2024/02/22 04:37:11;;;;;;;17.20;13.30;;;;;;;4.76;79.65;99413.87;107258;1256;67920;-39
2024/02/22 04:39:38;;;;;;;16.10;13.20;;;;;;;4.77;79.56;99412.35;107012;1257;72705;-39
2024/02/22 04:42:06;;;;;;;18.70;13.40;;;;;;;4.77;79.77;99415.30;107251;1256;60389;-39
2024/02/22 04:44:34;;;;;;;17.60;13.10;;;;;;;4.77;79.70;99418.08;107294;1256;60447;-39
2024/02/22 04:47:01;;;;;;;20.40;14.30;;;;;;;4.77;79.47;99413.63;107206;1260;73847;-39
2024/02/22 04:49:29;;;;;;;19.70;14.30;;;;;;;4.75;79.48;99413.11;107217;1258;66284;-39
2024/02/22 04:51:57;;;;;;;17.00;12.50;;;;;;;4.73;79.65;99414.83;107061;1260;72730;-39
2024/02/22 04:54:26;;;;;;;17.40;13.10;;;;;;;4.76;79.77;99416.33;107198;1260;60872;-39
2024/02/22 04:56:53;;;;;;;16.40;12.40;;;;;;;4.79;79.88;99416.30;107142;1259;60107;-39
2024/02/22 04:59:21;;;;;;;18.90;14.00;;;;;;;4.78;79.89;99416.05;107111;1259;73875;-39
2024/02/22 05:01:49;;;;;;;17.90;14.00;;;;;;;4.75;79.95;99413.27;107246;1257;67558;-39
2024/02/22 05:04:17;;;;;;;16.30;13.30;;;;;;;4.66;80.04;99411.08;107202;1257;72695;-39
2024/02/22 05:06:44;;;;;;;20.00;13.80;;;;;;;4.60;80.47;99407.90;107177;1259;60520;-39
2024/02/22 05:09:13;;;;;;;20.00;13.20;;;;;;;4.61;80.72;99410.91;107236;1260;60032;-39
2024/02/22 05:11:47;;;;;;;17.80;14.20;;;;;;;4.63;80.80;99409.91;107189;1259;73933;-39
2024/02/22 05:14:15;;;;;;;17.50;13.50;;;;;;;4.62;80.80;99406.45;107171;1259;66666;-39
2024/02/22 05:16:43;;;;;;;19.40;13.40;;;;;;;4.60;80.83;99406.83;107101;1259;72674;-39
2024/02/22 05:19:11;;;;;;;18.60;13.80;;;;;;;4.61;81.06;99417.97;107117;1260;60578;-39
2024/02/22 05:21:38;;;;;;;19.40;13.60;;;;;;;4.61;81.13;99413.20;107185;1259;60380;-39
2024/02/22 05:24:06;;;;;;;63.00;48.30;;;;;;;4.58;81.28;99415.08;107089;1260;72584;-39
2024/02/22 05:26:33;;;;;;;21.70;15.70;;;;;;;4.53;81.42;99414.10;107011;1259;66951;-39
2024/02/22 05:29:01;;;;;;;19.80;14.50;;;;;;;4.49;81.97;99409.40;107200;1260;72737;-39
2024/02/22 05:31:28;;;;;;;21.10;16.00;;;;;;;4.51;82.02;99412.56;107190;1257;60514;-39
2024/02/22 05:33:56;;;;;;;30.80;25.30;;;;;;;4.55;82.08;99415.80;107069;1259;60400;-39
2024/02/22 05:36:23;;;;;;;37.40;29.00;;;;;;;4.56;82.14;99411.30;107128;1258;73886;-39
2024/02/22 05:38:51;;;;;;;42.10;30.80;;;;;;;4.53;82.17;99414.01;107128;1258;67609;-39
2024/02/22 05:41:19;;;;;;;32.20;23.90;;;;;;;4.48;82.48;99415.50;107112;1259;71889;-39
2024/02/22 05:43:47;;;;;;;35.40;23.30;;;;;;;4.46;82.54;99414.80;107215;1258;60447;-39
2024/02/22 05:46:14;;;;;;;29.40;20.80;;;;;;;4.49;82.54;99415.38;107163;1258;59309;-39
2024/02/22 05:48:44;;;;;;;37.20;23.50;;;;;;;4.51;82.62;99415.77;107111;1259;73855;-39
2024/02/22 05:51:11;;;;;;;59.80;35.10;;;;;;;4.53;82.66;99415.23;107198;1259;67604;-39
2024/02/22 05:53:40;;;;;;;48.00;30.50;;;;;;;4.54;82.79;99415.67;107179;1257;71548;-39
2024/02/22 05:56:08;;;;;;;38.80;24.50;;;;;;;4.54;82.64;99413.31;107203;1258;60433;-39
2024/02/22 05:58:36;;;;;;;41.70;27.60;;;;;;;4.56;82.88;99412.55;107292;1259;60471;-39
2024/02/22 06:01:04;;;;;;;25.80;17.10;;;;;;;4.60;82.92;99412.42;107143;1258;73887;-39
2024/02/22 06:03:32;;;;;;;45.60;28.60;;;;;;;4.68;83.14;99413.92;107140;1259;66476;-39
2024/02/22 06:06:00;;;;;;;29.20;21.10;;;;;;;4.74;82.98;99411.47;107124;1258;71425;-39
2024/02/22 06:08:28;;;;;;;23.40;17.00;;;;;;;4.76;82.86;99413.77;107091;1257;60364;-39
2024/02/22 06:10:55;;;;;;;22.50;16.70;;;;;;;4.74;82.66;99410.63;107070;1259;59288;-39
2024/02/22 06:13:23;;;;;;;23.60;16.30;;;;;;;4.71;82.61;99408.83;107230;1259;73906;-39
2024/02/22 06:15:51;;;;;;;21.10;15.50;;;;;;;4.72;82.77;99405.95;107216;1258;67623;-39
2024/02/22 06:18:19;;;;;;;22.80;16.70;;;;;;;4.75;82.78;99405.84;107201;1257;71428;-40
2024/02/22 06:20:46;;;;;;;20.70;15.80;;;;;;;4.78;82.90;99403.16;107152;1259;60411;-39
2024/02/22 06:23:14;;;;;;;22.50;16.30;;;;;;;4.87;82.86;99403.10;107119;1262;59276;-39
2024/02/22 06:25:42;;;;;;;25.50;16.80;;;;;;;4.93;82.84;99402.81;107252;1262;73903;-39
2024/02/22 06:28:09;;;;;;;44.20;29.20;;;;;;;4.98;82.72;99400.48;107238;1258;66635;-39
2024/02/22 06:30:37;;;;;;;204.60;111.30;;;;;;;5.01;82.76;99406.64;107232;1259;72717;-39
2024/02/22 06:33:05;;;;;;;146.80;85.60;;;;;;;5.03;82.62;99404.48;107243;1257;60161;-39
2024/02/22 06:35:33;;;;;;;110.80;65.90;;;;;;;5.03;82.74;99407.69;107259;1259;60570;-39
2024/02/22 06:38:00;;;;;;;98.40;58.50;;;;;;;5.04;82.68;99405.74;107253;1259;73992;-39
2024/02/22 06:40:28;;;;;;;52.70;32.60;;;;;;;5.07;82.66;99401.56;107287;1260;68147;-39
2024/02/22 06:42:56;;;;;;;54.20;37.00;;;;;;;5.07;82.49;99400.17;107039;1259;71383;-39
2024/02/22 06:45:24;;;;;;;30.20;22.20;;;;;;;5.06;82.71;99402.76;107236;1260;61698;-39
2024/02/22 06:47:52;;;;;;;30.80;22.60;;;;;;;5.08;82.91;99399.59;107221;1259;60177;-39
2024/02/22 06:50:19;;;;;;;22.80;17.50;;;;;;;5.12;83.01;99396.10;107198;1260;73870;-39
2024/02/22 06:52:48;;;;;;;21.10;15.50;;;;;;;5.15;82.98;99396.91;107246;1259;67589;-39
2024/02/22 06:55:16;;;;;;;22.60;17.40;;;;;;;5.17;83.08;99397.16;107243;1257;72674;-39
2024/02/22 06:57:44;;;;;;;22.50;17.80;;;;;;;5.18;83.09;99395.10;107206;1259;60470;-39
2024/02/22 07:00:14;;;;;;;23.40;18.30;;;;;;;5.17;83.38;99396.09;107021;1260;59840;-39
2024/02/22 07:02:43;;;;;;;21.20;16.40;;;;;;;5.20;83.21;99396.95;107263;1259;73854;-39
2024/02/22 07:05:12;;;;;;;23.60;17.90;;;;;;;5.20;83.13;99394.89;107274;1259;70192;-39
2024/02/22 07:07:40;;;;;;;;;;;;;;;5.22;83.27;99393.88;107103;1262;75836;-39
2024/02/22 07:10:13;;;;;;;23.80;15.20;;;;;;;5.25;83.36;99388.87;107205;1257;60629;-39
2024/02/22 07:12:43;;;;;;;22.70;16.60;;;;;;;5.29;83.42;99394.47;107259;1259;60354;-39
2024/02/22 07:15:11;;;;;;;21.20;15.60;;;;;;;5.32;83.35;99391.30;107237;1260;74332;-39
2024/02/22 07:17:39;;;;;;;20.70;16.30;;;;;;;5.35;83.23;99382.98;107176;1262;66246;-39
2024/02/22 07:20:07;;;;;;;22.20;16.50;;;;;;;5.38;83.22;99383.23;107232;1258;71292;-39
2024/02/22 07:22:35;;;;;;;22.60;15.80;;;;;;;5.43;83.24;99378.35;106511;1258;1003830;-39
2024/02/22 07:25:03;;;;;;;20.40;15.90;;;;;;;5.47;83.21;99373.77;107197;1260;60335;-39
2024/02/22 07:27:31;;;;;;;21.30;16.60;;;;;;;5.52;83.25;99372.76;107197;1260;74263;-39
2024/02/22 07:29:58;;;;;;;20.50;15.70;;;;;;;5.59;83.27;99375.53;107080;1258;68090;-38
2024/02/22 07:32:26;;;;;;;20.10;15.80;;;;;;;5.64;82.80;99370.44;107197;1260;71456;-39
2024/02/22 07:34:54;;;;;;;27.50;17.90;;;;;;;5.66;82.79;99374.58;107104;1258;60453;-39
2024/02/22 07:37:21;;;;;;;24.50;16.90;;;;;;;5.68;82.67;99375.23;107198;1261;61091;-39
2024/02/22 07:39:49;;;;;;;22.70;17.20;;;;;;;5.72;82.15;99381.67;107176;1259;74014;-38
2024/02/22 07:42:16;;;;;;;25.20;17.60;;;;;;;5.72;82.10;99378.70;107116;1260;67990;-39
2024/02/22 07:44:44;;;;;;;22.10;16.50;;;;;;;5.75;82.31;99381.20;107156;1260;72261;-38
2024/02/22 07:47:12;;;;;;;21.90;16.60;;;;;;;5.77;82.08;99378.23;107200;1258;62038;-39
2024/02/22 07:49:41;;;;;;;21.10;16.70;;;;;;;5.80;82.14;99375.49;107229;1260;60420;-39
2024/02/22 07:52:08;;;;;;;25.10;18.00;;;;;;;5.85;82.40;99372.59;107189;1259;73991;-38
2024/02/22 07:54:38;;;;;;;27.20;19.30;;;;;;;5.90;82.17;99366.38;106950;1260;70199;-39
2024/02/22 07:57:06;;;;;;;21.40;15.50;;;;;;;5.93;82.32;99358.65;107106;1260;71497;-39
2024/02/22 07:59:33;;;;;;;38.20;26.30;;;;;;;5.98;82.52;99358.58;107191;1259;60453;-39
2024/02/22 08:02:01;;;;;;;28.00;19.30;;;;;;;6.05;81.86;99357.84;107111;1260;60294;-39
2024/02/22 08:04:29;;;;;;;26.70;19.50;;;;;;;6.09;81.37;99357.70;107228;1260;73920;-39
2024/02/22 08:06:57;;;;;;;24.80;18.70;;;;;;;6.14;81.05;99354.26;107203;1259;66523;-39
2024/02/22 08:09:25;;;;;;;24.70;17.80;;;;;;;6.18;81.23;99354.93;107216;1258;71267;-39
2024/02/22 08:11:52;;;;;;;28.90;18.60;;;;;;;6.26;81.39;99358.06;107214;1261;60792;-39
2024/02/22 08:14:20;;;;;;;22.90;17.70;;;;;;;6.35;80.93;99359.09;107194;1259;60277;-39
2024/02/22 08:16:48;;;;;;;23.50;17.20;;;;;;;6.42;80.59;99357.77;107014;1260;73021;-39
2024/02/22 08:19:16;;;;;;;25.50;18.70;;;;;;;6.51;80.55;99352.63;107161;1262;67882;-38
2024/02/22 08:21:44;;;;;;;22.80;17.80;;;;;;;6.62;80.49;99350.15;107215;1257;71844;-39
2024/02/22 08:24:11;;;;;;;28.20;18.70;;;;;;;6.71;80.03;99350.34;107026;1263;60382;-39
2024/02/22 08:26:39;;;;;;;27.90;19.40;;;;;;;6.79;79.41;99354.67;107198;1259;60328;-38
2024/02/22 08:29:07;;;;;;;28.80;18.20;;;;;;;6.85;78.73;99350.48;107078;1258;76074;-39
2024/02/22 08:31:34;;;;;;;24.70;17.80;;;;;;;6.92;78.50;99349.65;107191;1260;67326;-39
2024/02/22 08:34:02;;;;;;;26.20;17.70;;;;;;;6.99;78.11;99354.04;107200;1258;73009;-38
2024/02/22 08:36:30;;;;;;;25.00;18.60;;;;;;;7.06;77.65;99350.08;107026;1260;62125;-39
2024/02/22 08:38:58;;;;;;;24.40;18.00;;;;;;;7.15;77.73;99350.26;107219;1259;60974;-39
2024/02/22 08:41:26;;;;;;;26.90;19.30;;;;;;;7.25;77.22;99348.73;107210;1259;73976;-38
2024/02/22 08:43:54;;;;;;;27.60;20.00;;;;;;;7.31;76.40;99345.21;107071;1259;66230;-39
2024/02/22 08:46:22;;;;;;;26.10;19.30;;;;;;;7.36;76.84;99342.21;107026;1260;74796;-39
2024/02/22 08:48:51;;;;;;;24.10;19.00;;;;;;;7.50;76.85;99338.23;107203;1257;60615;-39
2024/02/22 08:51:19;;;;;;;23.00;18.30;;;;;;;7.66;76.48;99339.87;107123;1259;60337;-39
2024/02/22 08:53:46;;;;;;;25.30;18.40;;;;;;;7.81;75.22;99337.69;107065;1259;74051;-39
2024/02/22 08:56:14;;;;;;;23.90;17.70;;;;;;;7.94;74.66;99334.75;107235;1260;67144;-39
2024/02/22 08:58:42;;;;;;;21.20;16.70;;;;;;;8.08;75.11;99330.67;107098;1259;71556;-39
2024/02/22 09:01:11;;;;;;;24.40;18.20;;;;;;;8.28;74.15;99328.47;107211;1259;61990;-39
2024/02/22 09:03:39;;;;;;;23.90;19.20;;;;;;;8.44;73.60;99329.77;107213;1259;60344;-39
2024/02/22 09:06:07;;;;;;;26.30;18.20;;;;;;;8.57;72.96;99327.73;107232;1260;74011;-39
2024/02/22 09:08:37;;;;;;;25.50;19.30;;;;;;;8.66;71.72;99326.41;107221;1259;69492;-39
2024/02/22 09:11:05;;;;;;;26.60;19.60;;;;;;;8.83;71.79;99322.66;107220;1259;72851;-39
2024/02/22 09:13:33;;;;;;;24.70;18.00;;;;;;;9.12;70.11;99322.86;107144;1261;59653;-39
2024/02/22 09:16:01;;;;;;;26.60;18.60;;;;;;;9.40;69.06;99319.77;107217;1263;60327;-39
2024/02/22 09:18:29;;;;;;;27.80;19.90;;;;;;;9.59;68.32;99319.21;107203;1259;76054;-39
2024/02/22 09:20:57;;;;;;;27.60;20.70;;;;;;;9.70;66.92;99320.38;107280;1259;68890;-39
2024/02/22 09:23:25;;;;;;;25.50;19.00;;;;;;;9.75;66.88;99316.84;107212;1257;71453;-39
2024/02/22 09:25:52;;;;;;;28.40;19.10;;;;;;;9.82;66.42;99314.21;107246;1260;59588;-39
2024/02/22 09:28:20;;;;;;;25.60;18.10;;;;;;;9.92;65.82;99308.77;107054;1259;60492;-40
2024/02/22 09:30:48;;;;;;;24.30;18.50;;;;;;;10.00;65.20;99308.63;107100;1260;74450;-40
2024/02/22 09:33:15;;;;;;;24.60;18.50;;;;;;;10.04;64.65;99308.64;107081;1259;68050;-40
2024/02/22 09:35:45;;;;;;;23.70;18.20;;;;;;;9.98;63.90;99309.52;107227;1258;72566;-40
2024/02/22 09:38:13;;;;;;;;;;;;;;;9.90;64.37;99301.39;107195;1257;60466;-40
2024/02/22 09:40:40;;;;;;;23.20;17.80;;;;;;;9.87;64.81;99301.27;107228;1260;60381;-40
2024/02/22 09:43:08;;;;;;;25.80;19.50;;;;;;;9.88;65.43;99301.42;107191;1260;73065;-40
2024/02/22 09:45:37;;;;;;;23.70;18.50;;;;;;;9.89;65.11;99294.79;107092;1262;68362;-40
2024/02/22 09:48:05;;;;;;;28.10;17.70;;;;;;;9.90;64.64;99294.20;107137;1259;74943;-40
2024/02/22 09:50:33;;;;;;;24.00;18.30;;;;;;;9.92;64.23;99289.52;107288;1260;60444;-40
2024/02/22 09:53:02;;;;;;;25.60;19.10;;;;;;;9.92;64.52;99287.42;107248;1259;60617;-40
2024/02/22 09:55:30;;;;;;;25.70;19.30;;;;;;;9.95;64.59;99289.20;106936;1259;72024;-40
2024/02/22 09:57:57;;;;;;;25.00;18.20;;;;;;;9.99;63.00;99278.13;107108;1260;70786;-40
2024/02/22 10:00:25;;;;;;;26.30;19.70;;;;;;;10.09;63.44;99273.52;107059;1260;71909;-40
2024/02/22 10:02:54;;;;;;;23.20;17.70;;;;;;;10.23;63.66;99274.98;107210;1262;60505;-40
2024/02/22 10:05:21;;;;;;;21.80;15.90;;;;;;;10.48;62.40;99274.58;107239;1262;60467;-40
2024/02/22 10:07:50;;;;;;;22.80;16.50;;;;;;;10.72;60.46;99267.79;107233;1259;73668;-40
2024/02/22 10:10:25;;;;;;;21.50;17.20;;;;;;;10.90;59.96;99266.45;107258;1262;70220;-40
2024/02/22 10:12:53;;;;;;;22.00;16.00;;;;;;;11.08;59.97;99262.08;107461;1254;71057;-40
2024/02/22 10:15:27;;;;;;;20.90;16.40;;;;;;;11.33;59.59;99253.45;107423;1256;62283;-40
2024/02/22 10:17:55;;;;;;;22.40;16.70;;;;;;;11.67;59.09;99250.11;107466;1256;60389;-40
2024/02/22 10:20:32;;;;;;;22.10;16.20;;;;;;;11.94;57.28;99249.69;107450;1256;72719;-40
2024/02/22 10:23:06;;;;;;;15.60;11.30;;;;;;;12.11;55.23;99247.48;107363;1256;66438;-40
2024/02/22 10:25:35;;;;;;;18.90;13.20;;;;;;;12.19;53.62;99241.48;106699;1254;1003093;-39
2024/02/22 10:28:04;;;;;;;16.30;11.20;;;;;;;12.26;55.09;99240.87;107484;1256;60559;-39
2024/02/22 10:30:34;;;;;;;17.10;13.20;;;;;;;12.34;54.51;99238.22;107334;1256;200712;-39
2024/02/22 10:34:34;;;;;;;17.60;14.10;;;;;;;12.42;53.90;99233.51;104283;1289;600088;-39
2024/02/22 10:37:04;;;;;;;23.60;14.60;;;;;;;12.46;53.78;99230.19;106645;1266;62237;-39
2024/02/22 10:39:31;;;;;;;18.50;13.70;;;;;;;12.47;54.58;99225.78;106704;1263;59124;-39
2024/02/22 10:41:59;;;;;;;17.60;13.50;;;;;;;12.48;53.15;99225.79;106757;1263;72416;-39
2024/02/22 10:44:26;;;;;;;18.50;13.50;;;;;;;12.46;53.66;99224.91;106787;1263;68112;-39
2024/02/22 10:46:54;;;;;;;17.00;13.70;;;;;;;12.39;53.06;99219.64;106743;1263;71573;-39
2024/02/22 10:49:22;;;;;;;18.90;13.40;;;;;;;12.23;53.57;99222.81;106835;1258;171408;-39
2024/02/22 10:51:51;;;;;;;12.90;9.80;;;;;;;12.07;53.55;99222.34;107054;1260;60960;-39
2024/02/22 10:54:18;;;;;;;13.50;9.90;;;;;;;11.89;51.94;99220.36;107028;1264;74376;-39
2024/02/22 10:56:48;;;;;;;15.20;10.80;;;;;;;11.71;52.30;99216.89;106989;1260;70140;-39
2024/02/22 10:59:20;;;;;;;;;;;;;;;11.65;53.47;99208.98;107089;1259;72775;-40
2024/02/22 11:01:48;;;;;;;17.80;12.80;;;;;;;11.71;54.10;99206.56;107097;1260;59698;-40
2024/02/22 11:04:16;;;;;;;22.10;17.10;;;;;;;11.84;55.35;99207.27;107058;1260;59365;-40
2024/02/22 11:06:45;;;;;;;20.50;14.30;;;;;;;12.02;55.40;99202.66;107080;1260;73344;-40
2024/02/22 11:09:24;;;;;;;20.20;14.90;;;;;;;12.22;54.22;99202.86;107091;1258;66712;-40
2024/02/22 11:11:52;;;;;;;20.60;13.80;;;;;;;12.41;53.73;99201.95;107692;1251;71174;-40
2024/02/22 11:14:28;;;;;;;18.60;12.30;;;;;;;12.52;51.88;99208.10;107713;1251;59429;-40
2024/02/22 11:17:05;;;;;;;17.60;13.10;;;;;;;12.63;52.00;99203.14;107725;1255;59339;-40
2024/02/22 11:19:33;;;;;;;18.30;13.30;;;;;;;12.74;52.56;99203.23;107716;1250;73205;-40
2024/02/22 11:22:01;;;;;;;20.10;14.20;;;;;;;12.85;52.47;99199.19;107698;1250;68529;-40
2024/02/22 11:24:29;;;;;;;19.80;14.40;;;;;;;12.95;51.58;99198.33;107542;1251;73103;-40